createdAt,value
2019-01-11T00:01:42.089Z,10.00
2019-01-11T00:04:32.084Z,9.57
2019-01-11T00:07:15.191Z,10.13
2019-01-11T00:10:05.597Z,9.67
2019-01-11T00:12:53.405Z,10.70
2019-01-11T00:15:43.716Z,10.93
2019-01-11T00:18:26.484Z,10.63
2019-01-11T00:21:16.283Z,10.87
2019-01-11T00:23:58.818Z,11.67
2019-01-11T00:26:49.999Z,11.80
2019-01-11T00:29:36.954Z,11.57
2019-01-11T00:32:27.105Z,11.13
2019-01-11T00:35:10.050Z,12.17
2019-01-11T00:37:59.813Z,12.27
2019-01-11T00:40:42.823Z,12.53
2019-01-11T00:43:32.654Z,13.07
2019-01-11T00:46:15.138Z,12.97
2019-01-11T00:49:05.200Z,13.13
2019-01-11T00:51:47.812Z,14.27
2019-01-11T00:54:37.603Z,13.77
2019-01-11T00:57:20.175Z,15.13
2019-01-11T01:00:14.215Z,14.70
2019-01-11T01:02:56.328Z,14.63
2019-01-11T01:05:46.188Z,13.70
2019-01-11T01:08:30.595Z,13.93
2019-01-11T01:11:20.372Z,13.47
2019-01-11T01:14:02.640Z,14.80
2019-01-11T01:16:52.410Z,13.33
2019-01-11T01:25:22.722Z,13.47
2019-01-11T01:28:12.482Z,13.93
2019-01-11T01:31:02.247Z,14.60
2019-01-11T01:33:45.110Z,14.63
2019-01-11T01:36:34.818Z,14.87
2019-01-11T01:39:18.104Z,14.63
2019-01-11T01:42:08.196Z,15.23
2019-01-11T01:44:55.080Z,15.23
2019-01-11T01:47:45.233Z,16.13
2019-01-11T01:50:29.105Z,17.13
2019-01-11T01:53:18.880Z,16.97
2019-01-11T01:56:01.186Z,16.30
2019-01-11T01:58:51.804Z,16.23
2019-01-11T02:01:34.209Z,15.30
2019-01-11T02:04:23.992Z,15.80
2019-01-11T02:10:03.182Z,17.00
2019-01-11T02:12:53.034Z,15.97
2019-01-11T02:15:42.982Z,16.13
2019-01-11T02:18:32.811Z,16.17
2019-01-11T02:21:22.636Z,15.90
2019-01-11T02:24:12.448Z,16.23
2019-01-11T02:27:02.216Z,16.03
2019-01-11T02:30:04.960Z,15.13
2019-01-11T02:32:52.437Z,15.17
2019-01-11T02:35:39.016Z,14.77
2019-01-11T02:38:22.116Z,14.60
2019-01-11T02:41:11.864Z,13.43
2019-01-11T02:43:54.310Z,12.57
2019-01-11T02:46:44.137Z,12.00
2019-01-11T02:49:26.474Z,12.30
2019-01-11T02:52:16.513Z,12.80
2019-01-11T02:55:02.770Z,12.07
2019-01-11T02:57:52.576Z,13.10
2019-01-11T03:00:38.492Z,12.93
2019-01-11T03:03:28.404Z,12.77
2019-01-11T03:06:11.587Z,14.10
2019-01-11T03:09:01.340Z,13.10
2019-01-11T03:11:47.450Z,12.57
2019-01-11T03:14:37.235Z,13.07
2019-01-11T03:17:19.828Z,14.13
2019-01-11T03:20:09.736Z,13.73
2019-01-11T03:22:52.681Z,13.10
2019-01-11T03:25:43.252Z,13.50
2019-01-11T03:37:34.723Z,12.27
2019-01-11T03:40:18.498Z,13.37
2019-01-11T03:43:08.423Z,12.53
2019-01-11T03:45:58.411Z,12.57
2019-01-11T03:48:49.080Z,12.73
2019-01-11T03:51:38.863Z,12.83
2019-01-11T03:54:28.707Z,13.17
2019-01-11T03:57:18.858Z,12.93
2019-01-11T04:00:12.037Z,13.67
2019-01-11T04:02:54.129Z,13.60
2019-01-11T04:05:44.052Z,12.63
2019-01-11T04:08:33.909Z,13.53
2019-01-11T04:11:23.733Z,12.43
2019-01-11T04:17:17.700Z,12.53
2019-01-11T04:20:02.162Z,11.67
2019-01-11T04:23:10.380Z,10.83
2019-01-11T04:26:01.125Z,11.47
2019-01-11T04:28:50.939Z,13.50
2019-01-11T04:31:41.051Z,11.37
2019-01-11T04:34:43.201Z,13.07
2019-01-11T04:37:26.539Z,11.00
2019-01-11T04:40:18.355Z,11.77
2019-01-11T04:43:00.715Z,12.40
2019-01-11T04:45:50.498Z,11.43
2019-01-11T04:48:32.497Z,10.90
2019-01-11T04:51:23.448Z,9.67
2019-01-11T04:54:06.400Z,9.80
2019-01-11T04:56:56.142Z,8.70
2019-01-11T04:59:38.453Z,9.27
2019-01-11T05:02:28.181Z,9.20
2019-01-11T05:05:12.619Z,9.70
2019-01-11T05:08:02.405Z,9.47
2019-01-11T05:10:44.574Z,9.37
2019-01-11T05:13:53.563Z,8.67
2019-01-11T05:16:39.574Z,8.60
2019-01-11T05:19:27.871Z,7.57
2019-01-11T05:22:10.141Z,8.00
2019-01-11T05:24:59.966Z,8.23
2019-01-11T05:27:43.991Z,7.90
2019-01-11T05:30:33.721Z,7.43
2019-01-11T05:33:20.158Z,7.93
2019-01-11T05:39:33.405Z,8.10
2019-01-11T05:42:24.167Z,8.13
2019-01-11T05:45:14.127Z,8.03
2019-01-11T05:48:03.936Z,8.20
2019-01-11T05:50:53.696Z,13.67
2019-01-11T05:53:36.274Z,8.40
2019-01-11T05:59:48.849Z,7.93
2019-01-11T06:02:33.680Z,7.27
2019-01-11T06:05:23.802Z,7.57
2019-01-11T06:08:15.920Z,8.23
2019-01-11T06:11:05.994Z,8.40
2019-01-11T06:13:48.088Z,8.27
2019-01-11T06:16:37.864Z,8.70
2019-01-11T06:19:19.980Z,8.73
2019-01-11T06:22:09.739Z,8.50
2019-01-11T06:24:52.436Z,8.50
2019-01-11T06:27:23.156Z,8.47
2019-01-11T06:30:14.324Z,8.70
2019-01-11T06:32:58.224Z,15.17
2019-01-11T06:35:40.228Z,27.73
2019-01-11T06:38:42.380Z,15.30
2019-01-11T06:41:27.344Z,14.67
2019-01-11T06:44:17.166Z,16.53
2019-01-11T06:47:00.634Z,10.83
2019-01-11T06:49:50.363Z,10.57
2019-01-11T06:52:33.326Z,10.37
2019-01-11T06:55:42.178Z,10.10
2019-01-11T06:58:24.256Z,8.63
2019-01-11T07:01:14.003Z,9.40
2019-01-11T07:03:56.390Z,8.70
2019-01-11T07:06:46.158Z,8.53
2019-01-11T07:09:28.492Z,8.17
2019-01-11T07:15:21.293Z,8.13
2019-01-11T07:18:11.121Z,7.80
2019-01-11T07:20:55.492Z,8.57
2019-01-11T07:23:45.198Z,8.23
2019-01-11T07:26:27.899Z,8.60
2019-01-11T07:29:17.658Z,8.10
2019-01-11T07:32:03.875Z,7.67
2019-01-11T07:34:53.663Z,8.10
2019-01-11T07:37:36.527Z,7.83
2019-01-11T07:40:26.286Z,8.03
2019-01-11T07:49:09.514Z,8.50
2019-01-11T07:51:59.362Z,8.30
2019-01-11T07:54:42.122Z,7.60
2019-01-11T08:00:35.059Z,7.97
2019-01-11T08:06:26.559Z,7.13
2019-01-11T08:09:16.303Z,8.17
2019-01-11T08:11:59.037Z,7.80
2019-01-11T08:14:48.768Z,8.07
2019-01-11T08:17:30.951Z,7.90
2019-01-11T08:20:20.751Z,8.33
2019-01-11T08:23:03.224Z,7.97
2019-01-11T08:25:53.031Z,8.50
2019-01-11T08:28:42.804Z,7.93
2019-01-11T08:31:25.531Z,7.93
2019-01-11T08:34:15.277Z,7.90
2019-01-11T08:40:01.182Z,8.23
2019-01-11T08:42:45.136Z,7.60
2019-01-11T08:45:34.965Z,9.10
2019-01-11T08:48:37.919Z,8.77
2019-01-11T08:51:20.917Z,7.83
2019-01-11T08:54:10.661Z,8.47
2019-01-11T08:56:52.937Z,8.33
2019-01-11T08:59:42.641Z,8.30
2019-01-11T09:02:25.199Z,8.30
2019-01-11T09:05:14.945Z,8.07
2019-01-11T09:08:01.231Z,7.93
2019-01-11T09:10:50.965Z,8.37
2019-01-11T09:13:33.688Z,7.90
2019-01-11T09:16:23.436Z,7.93
2019-01-11T09:19:06.909Z,7.13
2019-01-11T09:21:56.627Z,7.47
2019-01-11T09:24:46.367Z,7.37
2019-01-11T09:27:28.843Z,8.07
2019-01-11T09:30:18.601Z,7.33
2019-01-11T09:33:00.855Z,8.23
2019-01-11T09:35:50.959Z,7.53
2019-01-11T09:38:53.688Z,8.33
2019-01-11T09:41:35.786Z,7.70
2019-01-11T09:44:44.649Z,7.87
2019-01-11T09:47:28.248Z,7.80
2019-01-11T09:50:18.012Z,7.60
2019-01-11T09:53:00.138Z,7.93
2019-01-11T09:55:49.885Z,7.70
2019-01-11T09:58:36.065Z,7.23
2019-01-11T10:01:25.818Z,7.90
2019-01-11T10:04:10.216Z,7.80
2019-01-11T10:10:18.963Z,8.33
2019-01-11T10:13:08.732Z,9.33
2019-01-11T10:15:51.053Z,9.63
2019-01-11T10:18:40.855Z,9.93
2019-01-11T10:21:30.656Z,10.50
2019-01-11T10:24:14.717Z,9.13
2019-01-11T10:26:59.013Z,9.33
2019-01-11T10:29:48.884Z,9.47
2019-01-11T10:32:38.650Z,9.90
2019-01-11T10:35:41.764Z,10.23
2019-01-11T10:38:24.820Z,10.30
2019-01-11T10:41:14.527Z,10.53
2019-01-11T10:44:00.774Z,11.60
2019-01-11T10:46:50.509Z,10.07
2019-01-11T10:49:32.826Z,10.27
2019-01-11T10:52:22.609Z,11.20
2019-01-11T10:55:05.480Z,10.80
2019-01-11T10:57:55.311Z,10.73
2019-01-11T11:00:45.179Z,11.40
2019-01-11T11:03:34.967Z,11.17
2019-01-11T11:06:43.816Z,10.93
2019-01-11T11:09:33.563Z,11.30
2019-01-11T11:15:19.832Z,10.73
2019-01-11T11:18:09.558Z,10.07
2019-01-11T11:20:59.400Z,11.47
2019-01-11T11:23:43.272Z,10.10
2019-01-11T11:26:33.076Z,10.13
2019-01-11T11:35:35.614Z,10.23
2019-01-11T11:38:25.508Z,9.67
2019-01-11T11:41:07.879Z,10.80
2019-01-11T11:43:58.038Z,10.33
2019-01-11T11:46:44.216Z,10.93
2019-01-11T11:49:34.128Z,11.30
2019-01-11T11:52:16.928Z,10.47
2019-01-11T11:55:07.130Z,11.20
2019-01-11T11:57:50.252Z,11.03
2019-01-11T12:00:39.992Z,11.13
2019-01-11T12:03:23.434Z,10.83
2019-01-11T12:06:13.182Z,11.00
2019-01-11T12:08:57.770Z,10.77
2019-01-11T12:11:47.504Z,11.97
2019-01-11T12:14:29.523Z,10.93
2019-01-11T12:17:19.272Z,11.27
2019-01-11T12:20:01.808Z,9.87
2019-01-11T12:22:51.552Z,11.10
2019-01-11T12:25:33.914Z,11.23
2019-01-11T12:28:23.694Z,10.37
2019-01-11T12:31:06.008Z,11.27
2019-01-11T12:33:55.781Z,11.03
2019-01-11T12:36:41.845Z,10.97
2019-01-11T12:39:31.544Z,10.23
2019-01-11T12:42:14.114Z,11.23
2019-01-11T12:45:04.612Z,10.97
2019-01-11T12:47:47.284Z,10.67
2019-01-11T12:50:24.615Z,10.63
2019-01-11T12:53:14.360Z,10.90
2019-01-11T12:55:56.783Z,11.03
2019-01-11T12:58:46.588Z,10.17
2019-01-11T13:01:50.088Z,10.30
2019-01-11T13:04:34.877Z,10.20
2019-01-11T13:07:24.965Z,9.23
2019-01-11T13:10:08.051Z,10.20
2019-01-11T13:12:57.818Z,10.20
2019-01-11T13:15:40.766Z,9.37
2019-01-11T13:18:30.566Z,10.03
2019-01-11T13:21:17.072Z,9.87
2019-01-11T13:24:07.425Z,9.90
2019-01-11T13:26:50.227Z,12.83
2019-01-11T13:29:40.021Z,10.73
2019-01-11T13:32:26.183Z,11.13
2019-01-11T13:35:16.026Z,9.67
2019-01-11T13:38:02.530Z,10.20
2019-01-11T13:41:11.659Z,10.30
2019-01-11T13:43:55.876Z,11.50
2019-01-11T13:46:45.756Z,11.30
2019-01-11T13:49:32.265Z,11.97
2019-01-11T13:52:22.221Z,10.50
2019-01-11T13:55:08.960Z,11.30
2019-01-11T13:57:58.791Z,10.70
2019-01-11T14:00:42.856Z,11.37
2019-01-11T14:03:32.979Z,12.90
2019-01-11T14:06:15.745Z,12.83
2019-01-11T14:12:24.884Z,13.13
2019-01-11T14:15:06.983Z,11.90
2019-01-11T14:17:56.809Z,11.90
2019-01-11T14:20:46.631Z,13.03
2019-01-11T14:23:50.196Z,12.43
2019-01-11T14:26:34.625Z,12.23
2019-01-11T14:29:24.390Z,12.57
2019-01-11T14:32:07.600Z,12.70
2019-01-11T14:34:57.368Z,12.67
2019-01-11T14:37:39.534Z,12.67
2019-01-11T14:40:30.116Z,12.50
2019-01-11T14:43:14.092Z,13.37
2019-01-11T14:46:03.813Z,12.93
2019-01-11T14:48:46.375Z,13.17
2019-01-11T14:51:36.194Z,13.03
2019-01-11T14:54:20.949Z,13.00
2019-01-11T14:57:10.711Z,13.87
2019-01-11T14:59:52.842Z,13.33
2019-01-11T15:02:42.685Z,14.30
2019-01-11T15:05:24.777Z,15.63
2019-01-11T15:08:14.564Z,14.03
2019-01-11T15:10:56.963Z,14.63
2019-01-11T15:13:47.012Z,14.63
2019-01-11T15:16:29.942Z,14.30
2019-01-11T15:19:20.006Z,14.73
2019-01-11T15:22:02.889Z,14.70
2019-01-11T15:24:53.569Z,14.63
2019-01-11T15:27:43.682Z,14.93
2019-01-11T15:30:30.272Z,15.07
2019-01-11T15:33:17.418Z,16.10
2019-01-11T15:36:00.720Z,15.53
2019-01-11T15:38:50.548Z,14.97
2019-01-11T15:41:40.348Z,15.53
2019-01-11T15:44:30.180Z,15.57
2019-01-11T15:47:14.434Z,13.83
2019-01-11T15:50:16.362Z,16.67
2019-01-11T15:53:05.917Z,14.63
2019-01-11T15:55:53.425Z,14.47
2019-01-11T15:58:36.118Z,13.67
2019-01-11T16:04:23.845Z,15.93
2019-01-11T16:07:13.678Z,16.47
2019-01-11T16:13:26.355Z,17.13
2019-01-11T16:16:54.224Z,14.80
2019-01-11T16:25:45.980Z,15.43
2019-01-11T16:28:28.139Z,14.37
2019-01-11T16:31:17.994Z,13.97
2019-01-11T16:34:09.842Z,14.70
2019-01-11T16:36:57.041Z,13.90
2019-01-11T16:39:41.383Z,14.20
2019-01-11T16:42:31.487Z,13.87
2019-01-11T16:48:17.279Z,13.90
2019-01-11T16:51:07.080Z,13.83
2019-01-11T16:53:49.249Z,16.47
2019-01-11T16:56:39.063Z,15.47
2019-01-11T16:59:28.851Z,15.97
2019-01-11T17:02:18.615Z,14.20
2019-01-11T17:08:04.358Z,15.20
2019-01-11T17:10:48.068Z,15.07
2019-01-11T17:13:32.220Z,15.70
2019-01-11T17:16:14.461Z,14.70
2019-01-11T17:19:04.281Z,14.70
2019-01-11T17:21:54.124Z,14.77
2019-01-11T17:24:44.149Z,16.33
2019-01-11T17:27:34.319Z,15.53
2019-01-11T17:30:24.479Z,16.23
2019-01-11T17:33:15.134Z,15.53
2019-01-11T17:35:57.597Z,15.03
2019-01-11T17:38:47.435Z,17.23
2019-01-11T17:41:37.069Z,14.73
2019-01-11T17:44:19.613Z,16.20
2019-01-11T17:47:27.246Z,16.43
2019-01-11T17:50:14.826Z,14.40
2019-01-11T17:53:04.716Z,13.77
2019-01-11T17:55:54.947Z,12.83
2019-01-11T17:58:44.791Z,13.27
2019-01-11T18:01:34.711Z,12.73
2019-01-11T18:04:24.637Z,12.43
2019-01-11T18:07:14.707Z,13.10
2019-01-11T18:13:00.121Z,13.57
2019-01-11T18:15:50.009Z,13.20
2019-01-11T18:18:32.714Z,13.60
2019-01-11T18:21:22.602Z,12.70
2019-01-11T18:24:10.870Z,13.40
2019-01-11T18:26:52.915Z,15.20
2019-01-11T18:35:10.971Z,14.33
2019-01-11T18:38:01.078Z,12.60
2019-01-11T18:40:43.820Z,12.57
2019-01-11T18:46:37.233Z,13.37
2019-01-11T18:49:27.350Z,14.83
2019-01-11T18:52:10.096Z,13.57
2019-01-11T18:55:01.079Z,12.97
2019-01-11T18:57:46.592Z,14.93
2019-01-11T19:00:36.501Z,12.93
2019-01-11T19:03:19.326Z,12.87
2019-01-11T19:09:10.302Z,8.33
2019-01-11T19:11:52.747Z,8.00
2019-01-11T19:14:35.555Z,8.07
2019-01-11T19:17:25.500Z,6.80
2019-01-11T19:20:20.812Z,7.10
2019-01-11T19:23:10.601Z,6.50
2019-01-11T19:26:00.392Z,6.47
2019-01-11T19:28:44.180Z,6.10
2019-01-11T19:34:40.031Z,7.17
2019-01-11T19:37:29.180Z,5.53
2019-01-11T19:43:05.332Z,7.87
2019-01-11T19:45:55.154Z,7.90
2019-01-11T19:48:39.788Z,7.90
2019-01-11T19:51:29.638Z,8.73
2019-01-11T19:54:12.084Z,8.87
2019-01-11T19:57:01.904Z,9.87
2019-01-11T19:59:44.785Z,9.43
2019-01-11T20:02:34.559Z,10.07
2019-01-11T20:05:24.649Z,9.20
2019-01-11T20:08:09.596Z,9.87
2019-01-11T20:10:52.198Z,10.27
2019-01-11T20:13:42.074Z,10.83
2019-01-11T20:16:31.938Z,10.53
2019-01-11T20:19:22.130Z,11.90
2019-01-11T20:22:11.981Z,10.73
2019-01-11T20:25:22.370Z,13.20
2019-01-11T20:28:13.188Z,11.43
2019-01-11T20:31:02.976Z,12.80
2019-01-11T20:33:45.867Z,13.13
2019-01-11T20:42:54.923Z,13.63
2019-01-11T20:45:25.706Z,14.07
2019-01-11T20:51:12.189Z,13.07
2019-01-11T20:54:01.989Z,14.63
2019-01-11T20:56:44.209Z,13.47
2019-01-11T20:59:34.303Z,15.03
2019-01-11T21:02:16.867Z,13.90
2019-01-11T21:08:10.793Z,14.40
2019-01-11T21:11:00.878Z,12.73
2019-01-11T21:13:43.454Z,12.90
2019-01-11T21:16:47.499Z,15.40
2019-01-11T21:19:17.263Z,15.33
2019-01-11T21:22:07.071Z,15.00
2019-01-11T21:25:00.247Z,14.67
2019-01-11T21:27:41.483Z,14.10
2019-01-11T21:30:32.013Z,15.10
2019-01-11T21:33:21.825Z,15.83
2019-01-11T21:36:04.291Z,14.80
2019-01-11T21:38:54.175Z,15.40
2019-01-11T21:41:46.073Z,16.03
2019-01-11T21:44:36.035Z,16.17
2019-01-11T21:47:26.094Z,15.53
2019-01-11T21:56:26.893Z,16.97
2019-01-11T21:59:16.725Z,17.90
2019-01-11T22:01:58.855Z,19.30
2019-01-11T22:04:48.671Z,19.37
2019-01-11T22:07:31.445Z,19.00
2019-01-11T22:10:21.611Z,18.43
2019-01-11T22:13:03.977Z,17.80
2019-01-11T22:15:53.857Z,18.13
2019-01-11T22:21:33.271Z,20.47
2019-01-11T22:24:23.210Z,20.40
2019-01-11T22:27:13.331Z,21.80
2019-01-11T22:30:03.788Z,22.03
2019-01-11T22:32:53.587Z,20.50
2019-01-11T22:35:36.078Z,21.20
2019-01-11T22:38:25.968Z,22.33
2019-01-11T22:41:15.859Z,18.83
2019-01-11T22:44:05.936Z,21.97
2019-01-11T22:46:55.980Z,21.53
2019-01-11T22:58:46.699Z,20.17
2019-01-11T23:02:14.719Z,20.00
2019-01-11T23:04:56.867Z,22.07
2019-01-11T23:08:07.717Z,22.50
2019-01-11T23:11:12.368Z,20.23
2019-01-11T23:14:02.144Z,21.47
2019-01-11T23:16:47.101Z,21.87
2019-01-11T23:19:37.224Z,22.03
2019-01-11T23:22:21.684Z,21.93
2019-01-11T23:25:11.484Z,21.23
2019-01-11T23:27:54.231Z,20.60
2019-01-11T23:30:44.040Z,20.30
2019-01-11T23:33:30.557Z,18.57
2019-01-11T23:36:20.382Z,20.50
2019-01-11T23:39:04.872Z,18.73
2019-01-11T23:44:56.001Z,19.13
2019-01-11T23:47:39.068Z,19.83
2019-01-11T23:50:28.868Z,16.83
2019-01-11T23:53:11.496Z,17.37
2019-01-11T23:56:01.372Z,17.90
2019-01-11T23:58:51.165Z,18.37
